sensor_id;sensor_type;location;lat;lon;timestamp;P1;durP1;ratioP1;P2;durP2;ratioP2
31786;SDS011;18356;52.380;9.820;2022-09-12T00:01:28;17.80;;;11.27;;
31786;SDS011;18356;52.380;9.820;2022-09-12T00:03:55;17.87;;;12.50;;
31786;SDS011;18356;52.380;9.820;2022-09-12T00:06:32;15.17;;;11.13;;
31786;SDS011;18356;52.380;9.820;2022-09-12T00:09:00;21.53;;;10.80;;
31786;SDS011;18356;52.380;9.820;2022-09-12T00:11:27;21.30;;;11.97;;
31786;SDS011;18356;52.380;9.820;2022-09-12T00:13:58;18.77;;;11.83;;
31786;SDS011;18356;52.380;9.820;2022-09-12T00:16:25;18.60;;;12.03;;
31786;SDS011;18356;52.380;9.820;2022-09-12T00:18:51;18.80;;;11.83;;
31786;SDS011;18356;52.380;9.820;2022-09-12T00:21:17;16.70;;;11.73;;
31786;SDS011;18356;52.380;9.820;2022-09-12T00:23:44;15.43;;;10.87;;
31786;SDS011;18356;52.380;9.820;2022-09-12T00:26:11;16.13;;;11.37;;
31786;SDS011;18356;52.380;9.820;2022-09-12T00:28:37;17.50;;;12.50;;
31786;SDS011;18356;52.380;9.820;2022-09-12T00:31:05;19.17;;;11.73;;
31786;SDS011;18356;52.380;9.820;2022-09-12T00:33:31;22.43;;;12.07;;
31786;SDS011;18356;52.380;9.820;2022-09-12T00:35:57;20.93;;;12.43;;
31786;SDS011;18356;52.380;9.820;2022-09-12T00:38:25;20.33;;;12.17;;
31786;SDS011;18356;52.380;9.820;2022-09-12T00:40:51;20.10;;;12.30;;
31786;SDS011;18356;52.380;9.820;2022-09-12T00:45:56;19.20;;;12.37;;
31786;SDS011;18356;52.380;9.820;2022-09-12T00:48:27;18.37;;;11.63;;
31786;SDS011;18356;52.380;9.820;2022-09-12T00:50:55;17.63;;;11.50;;
31786;SDS011;18356;52.380;9.820;2022-09-12T00:53:21;19.20;;;11.17;;
31786;SDS011;18356;52.380;9.820;2022-09-12T00:55:48;23.17;;;11.83;;
31786;SDS011;18356;52.380;9.820;2022-09-12T00:58:19;19.70;;;12.13;;
31786;SDS011;18356;52.380;9.820;2022-09-12T01:00:47;19.93;;;11.57;;
31786;SDS011;18356;52.380;9.820;2022-09-12T01:03:15;19.07;;;11.20;;
31786;SDS011;18356;52.380;9.820;2022-09-12T01:05:43;19.83;;;10.87;;
31786;SDS011;18356;52.380;9.820;2022-09-12T01:08:12;17.20;;;11.20;;
31786;SDS011;18356;52.380;9.820;2022-09-12T01:10:39;17.97;;;11.00;;
31786;SDS011;18356;52.380;9.820;2022-09-12T01:13:07;17.73;;;10.90;;
31786;SDS011;18356;52.380;9.820;2022-09-12T01:15:33;22.30;;;11.77;;
31786;SDS011;18356;52.380;9.820;2022-09-12T01:43:33;16.63;;;11.00;;
31786;SDS011;18356;52.380;9.820;2022-09-12T01:46:09;18.20;;;11.40;;
31786;SDS011;18356;52.380;9.820;2022-09-12T01:48:56;16.37;;;10.97;;
31786;SDS011;18356;52.380;9.820;2022-09-12T01:51:25;19.93;;;12.17;;
31786;SDS011;18356;52.380;9.820;2022-09-12T01:53:56;19.30;;;11.57;;
31786;SDS011;18356;52.380;9.820;2022-09-12T01:56:26;20.97;;;11.43;;
31786;SDS011;18356;52.380;9.820;2022-09-12T01:58:59;21.20;;;12.23;;
31786;SDS011;18356;52.380;9.820;2022-09-12T02:01:27;18.57;;;11.10;;
31786;SDS011;18356;52.380;9.820;2022-09-12T02:03:59;17.00;;;11.47;;
31786;SDS011;18356;52.380;9.820;2022-09-12T02:06:39;19.00;;;11.60;;
31786;SDS011;18356;52.380;9.820;2022-09-12T02:09:13;18.93;;;11.50;;
31786;SDS011;18356;52.380;9.820;2022-09-12T02:11:42;20.37;;;11.30;;
31786;SDS011;18356;52.380;9.820;2022-09-12T02:14:20;19.77;;;12.33;;
31786;SDS011;18356;52.380;9.820;2022-09-12T02:16:52;18.63;;;11.53;;
31786;SDS011;18356;52.380;9.820;2022-09-12T02:19:22;17.60;;;11.03;;
31786;SDS011;18356;52.380;9.820;2022-09-12T02:21:51;17.97;;;10.43;;
31786;SDS011;18356;52.380;9.820;2022-09-12T02:24:19;16.63;;;10.87;;
31786;SDS011;18356;52.380;9.820;2022-09-12T02:26:51;20.27;;;11.60;;
31786;SDS011;18356;52.380;9.820;2022-09-12T02:29:19;19.80;;;11.60;;
31786;SDS011;18356;52.380;9.820;2022-09-12T02:31:46;19.73;;;11.60;;
31786;SDS011;18356;52.380;9.820;2022-09-12T02:39:10;18.90;;;11.57;;
31786;SDS011;18356;52.380;9.820;2022-09-12T02:41:36;21.97;;;12.53;;
31786;SDS011;18356;52.380;9.820;2022-09-12T02:44:03;21.47;;;12.03;;
31786;SDS011;18356;52.380;9.820;2022-09-12T02:46:41;18.90;;;11.80;;
31786;SDS011;18356;52.380;9.820;2022-09-12T02:49:08;20.23;;;11.63;;
31786;SDS011;18356;52.380;9.820;2022-09-12T02:51:34;19.53;;;12.00;;
31786;SDS011;18356;52.380;9.820;2022-09-12T02:54:01;23.50;;;12.03;;
31786;SDS011;18356;52.380;9.820;2022-09-12T02:56:29;19.40;;;11.63;;
31786;SDS011;18356;52.380;9.820;2022-09-12T02:59:04;17.40;;;10.23;;
31786;SDS011;18356;52.380;9.820;2022-09-12T03:06:34;18.27;;;10.73;;
31786;SDS011;18356;52.380;9.820;2022-09-12T03:09:05;16.83;;;10.60;;
31786;SDS011;18356;52.380;9.820;2022-09-12T03:14:18;19.90;;;10.57;;
31786;SDS011;18356;52.380;9.820;2022-09-12T03:22:15;18.30;;;10.03;;
31786;SDS011;18356;52.380;9.820;2022-09-12T03:27:14;18.10;;;10.27;;
31786;SDS011;18356;52.380;9.820;2022-09-12T03:29:41;18.37;;;10.60;;
31786;SDS011;18356;52.380;9.820;2022-09-12T03:32:08;18.50;;;10.80;;
31786;SDS011;18356;52.380;9.820;2022-09-12T03:34:34;17.17;;;10.63;;
31786;SDS011;18356;52.380;9.820;2022-09-12T03:37:01;17.67;;;10.43;;
31786;SDS011;18356;52.380;9.820;2022-09-12T03:39:27;17.43;;;10.07;;
31786;SDS011;18356;52.380;9.820;2022-09-12T03:41:54;16.80;;;10.47;;
31786;SDS011;18356;52.380;9.820;2022-09-12T03:44:20;19.63;;;10.60;;
31786;SDS011;18356;52.380;9.820;2022-09-12T03:46:46;17.97;;;10.97;;
31786;SDS011;18356;52.380;9.820;2022-09-12T03:49:12;16.27;;;10.07;;
31786;SDS011;18356;52.380;9.820;2022-09-12T03:51:39;17.63;;;11.30;;
31786;SDS011;18356;52.380;9.820;2022-09-12T03:54:07;17.90;;;10.37;;
31786;SDS011;18356;52.380;9.820;2022-09-12T03:56:33;20.70;;;10.43;;
31786;SDS011;18356;52.380;9.820;2022-09-12T03:58:59;19.13;;;11.37;;
31786;SDS011;18356;52.380;9.820;2022-09-12T04:01:25;18.50;;;11.10;;
31786;SDS011;18356;52.380;9.820;2022-09-12T04:03:51;22.03;;;11.70;;
31786;SDS011;18356;52.380;9.820;2022-09-12T04:06:19;18.07;;;10.87;;
31786;SDS011;18356;52.380;9.820;2022-09-12T04:08:49;18.50;;;10.63;;
31786;SDS011;18356;52.380;9.820;2022-09-12T04:11:16;17.43;;;10.73;;
31786;SDS011;18356;52.380;9.820;2022-09-12T04:13:42;18.80;;;10.50;;
31786;SDS011;18356;52.380;9.820;2022-09-12T04:16:09;18.57;;;10.40;;
31786;SDS011;18356;52.380;9.820;2022-09-12T04:18:39;17.20;;;10.00;;
31786;SDS011;18356;52.380;9.820;2022-09-12T04:21:05;19.30;;;10.57;;
31786;SDS011;18356;52.380;9.820;2022-09-12T04:23:32;18.57;;;10.40;;
31786;SDS011;18356;52.380;9.820;2022-09-12T04:25:59;17.53;;;10.27;;
31786;SDS011;18356;52.380;9.820;2022-09-12T04:28:26;17.30;;;10.50;;
31786;SDS011;18356;52.380;9.820;2022-09-12T04:30:54;17.07;;;9.97;;
31786;SDS011;18356;52.380;9.820;2022-09-12T04:33:20;19.13;;;11.40;;
31786;SDS011;18356;52.380;9.820;2022-09-12T04:35:47;19.00;;;11.20;;
31786;SDS011;18356;52.380;9.820;2022-09-12T04:38:14;20.07;;;10.50;;
31786;SDS011;18356;52.380;9.820;2022-09-12T04:40:40;18.97;;;10.47;;
31786;SDS011;18356;52.380;9.820;2022-09-12T04:43:06;19.23;;;10.90;;
31786;SDS011;18356;52.380;9.820;2022-09-12T04:45:33;19.90;;;11.43;;
31786;SDS011;18356;52.380;9.820;2022-09-12T04:47:59;17.60;;;10.93;;
31786;SDS011;18356;52.380;9.820;2022-09-12T04:50:25;22.00;;;11.03;;
31786;SDS011;18356;52.380;9.820;2022-09-12T04:52:51;19.67;;;11.77;;
31786;SDS011;18356;52.380;9.820;2022-09-12T04:55:18;19.93;;;10.67;;
31786;SDS011;18356;52.380;9.820;2022-09-12T04:57:44;19.07;;;11.30;;
31786;SDS011;18356;52.380;9.820;2022-09-12T05:00:10;19.50;;;10.60;;
31786;SDS011;18356;52.380;9.820;2022-09-12T05:02:40;17.30;;;10.80;;
31786;SDS011;18356;52.380;9.820;2022-09-12T05:05:06;17.93;;;10.53;;
31786;SDS011;18356;52.380;9.820;2022-09-12T05:07:33;21.77;;;11.13;;
31786;SDS011;18356;52.380;9.820;2022-09-12T05:09:59;18.00;;;11.10;;
31786;SDS011;18356;52.380;9.820;2022-09-12T05:12:27;18.47;;;10.60;;
31786;SDS011;18356;52.380;9.820;2022-09-12T05:14:53;18.97;;;10.83;;
31786;SDS011;18356;52.380;9.820;2022-09-12T05:17:19;21.63;;;10.93;;
31786;SDS011;18356;52.380;9.820;2022-09-12T05:19:45;19.53;;;10.83;;
31786;SDS011;18356;52.380;9.820;2022-09-12T05:22:12;21.47;;;11.83;;
31786;SDS011;18356;52.380;9.820;2022-09-12T05:24:38;20.30;;;11.33;;
31786;SDS011;18356;52.380;9.820;2022-09-12T05:27:13;19.83;;;12.27;;
31786;SDS011;18356;52.380;9.820;2022-09-12T05:29:44;17.53;;;11.50;;
31786;SDS011;18356;52.380;9.820;2022-09-12T05:32:10;20.77;;;11.90;;
31786;SDS011;18356;52.380;9.820;2022-09-12T05:34:37;20.73;;;11.27;;
31786;SDS011;18356;52.380;9.820;2022-09-12T05:37:03;19.40;;;11.50;;
31786;SDS011;18356;52.380;9.820;2022-09-12T05:39:29;21.60;;;12.00;;
31786;SDS011;18356;52.380;9.820;2022-09-12T05:41:56;19.30;;;11.87;;
31786;SDS011;18356;52.380;9.820;2022-09-12T05:44:22;20.33;;;12.07;;
31786;SDS011;18356;52.380;9.820;2022-09-12T05:46:48;19.37;;;12.70;;
31786;SDS011;18356;52.380;9.820;2022-09-12T05:49:15;19.00;;;12.03;;
31786;SDS011;18356;52.380;9.820;2022-09-12T05:51:42;19.33;;;12.00;;
31786;SDS011;18356;52.380;9.820;2022-09-12T05:54:11;24.40;;;12.43;;
31786;SDS011;18356;52.380;9.820;2022-09-12T05:56:38;21.10;;;12.00;;
31786;SDS011;18356;52.380;9.820;2022-09-12T05:59:09;18.73;;;12.10;;
31786;SDS011;18356;52.380;9.820;2022-09-12T06:01:36;23.17;;;13.02;;
31786;SDS011;18356;52.380;9.820;2022-09-12T06:04:03;18.73;;;12.67;;
31786;SDS011;18356;52.380;9.820;2022-09-12T06:06:30;20.27;;;12.70;;
31786;SDS011;18356;52.380;9.820;2022-09-12T06:08:57;21.43;;;13.83;;
31786;SDS011;18356;52.380;9.820;2022-09-12T06:11:24;27.30;;;15.63;;
31786;SDS011;18356;52.380;9.820;2022-09-12T06:13:51;19.33;;;13.67;;
31786;SDS011;18356;52.380;9.820;2022-09-12T06:16:18;20.35;;;13.13;;
31786;SDS011;18356;52.380;9.820;2022-09-12T06:18:46;22.07;;;14.07;;
31786;SDS011;18356;52.380;9.820;2022-09-12T06:21:13;31.27;;;17.70;;
31786;SDS011;18356;52.380;9.820;2022-09-12T06:23:39;26.52;;;16.35;;
31786;SDS011;18356;52.380;9.820;2022-09-12T06:26:06;26.77;;;16.27;;
31786;SDS011;18356;52.380;9.820;2022-09-12T06:28:36;26.95;;;16.60;;
31786;SDS011;18356;52.380;9.820;2022-09-12T06:31:02;27.65;;;16.95;;
31786;SDS011;18356;52.380;9.820;2022-09-12T06:33:30;31.30;;;17.88;;
31786;SDS011;18356;52.380;9.820;2022-09-12T06:36:01;29.00;;;18.48;;
31786;SDS011;18356;52.380;9.820;2022-09-12T06:38:28;26.08;;;16.48;;
31786;SDS011;18356;52.380;9.820;2022-09-12T06:40:54;32.00;;;18.17;;
31786;SDS011;18356;52.380;9.820;2022-09-12T06:43:21;30.63;;;17.75;;
31786;SDS011;18356;52.380;9.820;2022-09-12T06:45:48;30.98;;;18.73;;
31786;SDS011;18356;52.380;9.820;2022-09-12T06:48:14;29.52;;;17.83;;
31786;SDS011;18356;52.380;9.820;2022-09-12T06:50:40;26.02;;;17.35;;
31786;SDS011;18356;52.380;9.820;2022-09-12T06:53:06;28.73;;;17.23;;
31786;SDS011;18356;52.380;9.820;2022-09-12T06:55:32;28.65;;;17.27;;
31786;SDS011;18356;52.380;9.820;2022-09-12T06:57:58;33.10;;;16.30;;
31786;SDS011;18356;52.380;9.820;2022-09-12T07:00:24;28.42;;;18.77;;
31786;SDS011;18356;52.380;9.820;2022-09-12T07:02:54;29.25;;;18.45;;
31786;SDS011;18356;52.380;9.820;2022-09-12T07:05:23;27.55;;;18.08;;
31786;SDS011;18356;52.380;9.820;2022-09-12T07:07:49;25.70;;;16.67;;
31786;SDS011;18356;52.380;9.820;2022-09-12T07:10:15;28.08;;;17.23;;
31786;SDS011;18356;52.380;9.820;2022-09-12T07:12:41;25.58;;;17.08;;
31786;SDS011;18356;52.380;9.820;2022-09-12T07:15:08;29.42;;;17.73;;
31786;SDS011;18356;52.380;9.820;2022-09-12T07:17:34;30.02;;;16.33;;
31786;SDS011;18356;52.380;9.820;2022-09-12T07:20:01;25.50;;;15.68;;
31786;SDS011;18356;52.380;9.820;2022-09-12T07:22:27;23.83;;;15.23;;
31786;SDS011;18356;52.380;9.820;2022-09-12T07:24:53;26.77;;;15.85;;
31786;SDS011;18356;52.380;9.820;2022-09-12T07:27:19;24.33;;;15.27;;
31786;SDS011;18356;52.380;9.820;2022-09-12T07:29:46;25.38;;;16.42;;
31786;SDS011;18356;52.380;9.820;2022-09-12T07:32:13;23.10;;;14.20;;
31786;SDS011;18356;52.380;9.820;2022-09-12T07:34:39;21.27;;;14.25;;
31786;SDS011;18356;52.380;9.820;2022-09-12T07:37:05;21.33;;;13.52;;
31786;SDS011;18356;52.380;9.820;2022-09-12T07:39:31;22.92;;;13.98;;
31786;SDS011;18356;52.380;9.820;2022-09-12T07:41:57;18.95;;;13.27;;
31786;SDS011;18356;52.380;9.820;2022-09-12T07:44:24;19.63;;;12.75;;
31786;SDS011;18356;52.380;9.820;2022-09-12T07:46:51;21.05;;;12.90;;
31786;SDS011;18356;52.380;9.820;2022-09-12T07:49:17;22.35;;;13.02;;
31786;SDS011;18356;52.380;9.820;2022-09-12T07:51:43;20.95;;;13.00;;
31786;SDS011;18356;52.380;9.820;2022-09-12T07:54:09;19.25;;;13.68;;
31786;SDS011;18356;52.380;9.820;2022-09-12T07:56:36;17.73;;;11.60;;
31786;SDS011;18356;52.380;9.820;2022-09-12T07:59:02;19.27;;;12.32;;
31786;SDS011;18356;52.380;9.820;2022-09-12T08:01:28;15.73;;;11.10;;
31786;SDS011;18356;52.380;9.820;2022-09-12T08:03:55;20.40;;;12.43;;
31786;SDS011;18356;52.380;9.820;2022-09-12T08:06:22;20.33;;;11.20;;
31786;SDS011;18356;52.380;9.820;2022-09-12T08:08:49;19.50;;;11.13;;
31786;SDS011;18356;52.380;9.820;2022-09-12T08:11:16;17.67;;;11.05;;
31786;SDS011;18356;52.380;9.820;2022-09-12T08:13:43;17.35;;;10.57;;
31786;SDS011;18356;52.380;9.820;2022-09-12T08:16:11;14.40;;;9.93;;
31786;SDS011;18356;52.380;9.820;2022-09-12T08:18:38;16.40;;;9.73;;
31786;SDS011;18356;52.380;9.820;2022-09-12T08:21:06;14.63;;;9.13;;
31786;SDS011;18356;52.380;9.820;2022-09-12T08:23:32;14.50;;;8.40;;
31786;SDS011;18356;52.380;9.820;2022-09-12T08:26:00;14.70;;;8.82;;
31786;SDS011;18356;52.380;9.820;2022-09-12T08:28:27;12.68;;;8.20;;
31786;SDS011;18356;52.380;9.820;2022-09-12T08:30:58;12.02;;;8.43;;
31786;SDS011;18356;52.380;9.820;2022-09-12T08:33:24;13.73;;;7.82;;
31786;SDS011;18356;52.380;9.820;2022-09-12T08:36:01;13.82;;;7.75;;
31786;SDS011;18356;52.380;9.820;2022-09-12T08:38:28;10.95;;;6.72;;
31786;SDS011;18356;52.380;9.820;2022-09-12T08:40:58;11.13;;;7.10;;
31786;SDS011;18356;52.380;9.820;2022-09-12T08:46:07;10.43;;;6.32;;
31786;SDS011;18356;52.380;9.820;2022-09-12T08:48:36;11.35;;;6.20;;
31786;SDS011;18356;52.380;9.820;2022-09-12T08:51:03;13.57;;;6.85;;
31786;SDS011;18356;52.380;9.820;2022-09-12T08:53:29;9.18;;;5.88;;
31786;SDS011;18356;52.380;9.820;2022-09-12T08:55:57;12.68;;;6.20;;
31786;SDS011;18356;52.380;9.820;2022-09-12T08:58:24;12.48;;;5.68;;
31786;SDS011;18356;52.380;9.820;2022-09-12T09:01:06;9.75;;;6.07;;
31786;SDS011;18356;52.380;9.820;2022-09-12T09:06:43;11.80;;;6.10;;
31786;SDS011;18356;52.380;9.820;2022-09-12T09:09:06;13.55;;;6.00;;
31786;SDS011;18356;52.380;9.820;2022-09-12T09:17:06;10.30;;;5.68;;
31786;SDS011;18356;52.380;9.820;2022-09-12T09:19:35;11.75;;;5.57;;
31786;SDS011;18356;52.380;9.820;2022-09-12T09:22:06;10.68;;;5.25;;
31786;SDS011;18356;52.380;9.820;2022-09-12T09:24:38;9.77;;;5.72;;
31786;SDS011;18356;52.380;9.820;2022-09-12T09:29:52;7.82;;;5.03;;
31786;SDS011;18356;52.380;9.820;2022-09-12T09:32:26;9.90;;;4.85;;
31786;SDS011;18356;52.380;9.820;2022-09-12T09:34:53;13.45;;;4.85;;
31786;SDS011;18356;52.380;9.820;2022-09-12T09:37:22;9.48;;;3.83;;
31786;SDS011;18356;52.380;9.820;2022-09-12T09:39:54;6.88;;;4.07;;
31786;SDS011;18356;52.380;9.820;2022-09-12T09:42:29;9.63;;;4.50;;
31786;SDS011;18356;52.380;9.820;2022-09-12T09:45:00;6.95;;;3.40;;
31786;SDS011;18356;52.380;9.820;2022-09-12T09:47:27;7.90;;;4.05;;
31786;SDS011;18356;52.380;9.820;2022-09-12T09:49:53;7.72;;;4.10;;
31786;SDS011;18356;52.380;9.820;2022-09-12T09:52:23;10.10;;;4.60;;
31786;SDS011;18356;52.380;9.820;2022-09-12T09:54:51;8.93;;;4.07;;
31786;SDS011;18356;52.380;9.820;2022-09-12T10:05:35;7.15;;;3.67;;
31786;SDS011;18356;52.380;9.820;2022-09-12T10:08:09;6.18;;;3.50;;
31786;SDS011;18356;52.380;9.820;2022-09-12T10:10:35;5.93;;;3.65;;
31786;SDS011;18356;52.380;9.820;2022-09-12T10:13:07;7.88;;;3.10;;
31786;SDS011;18356;52.380;9.820;2022-09-12T10:15:36;6.90;;;3.20;;
31786;SDS011;18356;52.380;9.820;2022-09-12T10:18:02;5.90;;;3.20;;
31786;SDS011;18356;52.380;9.820;2022-09-12T10:22:55;5.43;;;2.92;;
31786;SDS011;18356;52.380;9.820;2022-09-12T10:25:23;6.25;;;2.85;;
31786;SDS011;18356;52.380;9.820;2022-09-12T10:27:55;5.32;;;2.90;;
31786;SDS011;18356;52.380;9.820;2022-09-12T10:30:22;6.75;;;3.22;;
31786;SDS011;18356;52.380;9.820;2022-09-12T10:32:57;4.22;;;2.53;;
31786;SDS011;18356;52.380;9.820;2022-09-12T10:35:27;7.22;;;3.20;;
31786;SDS011;18356;52.380;9.820;2022-09-12T10:40:27;4.25;;;2.40;;
31786;SDS011;18356;52.380;9.820;2022-09-12T10:42:56;4.95;;;2.75;;
31786;SDS011;18356;52.380;9.820;2022-09-12T10:47:49;6.13;;;2.65;;
31786;SDS011;18356;52.380;9.820;2022-09-12T10:50:22;5.85;;;2.38;;
31786;SDS011;18356;52.380;9.820;2022-09-12T10:52:50;4.07;;;2.20;;
31786;SDS011;18356;52.380;9.820;2022-09-12T10:55:17;5.70;;;2.60;;
31786;SDS011;18356;52.380;9.820;2022-09-12T11:00:16;4.25;;;2.22;;
31786;SDS011;18356;52.380;9.820;2022-09-12T11:03:13;5.53;;;2.35;;
31786;SDS011;18356;52.380;9.820;2022-09-12T11:08:16;5.25;;;2.58;;
31786;SDS011;18356;52.380;9.820;2022-09-12T11:13:34;5.30;;;2.30;;
31786;SDS011;18356;52.380;9.820;2022-09-12T11:24:04;3.67;;;1.85;;
31786;SDS011;18356;52.380;9.820;2022-09-12T11:31:37;5.72;;;2.15;;
31786;SDS011;18356;52.380;9.820;2022-09-12T11:34:08;5.57;;;2.42;;
31786;SDS011;18356;52.380;9.820;2022-09-12T11:37:01;5.78;;;2.20;;
31786;SDS011;18356;52.380;9.820;2022-09-12T11:39:30;6.90;;;1.80;;
31786;SDS011;18356;52.380;9.820;2022-09-12T11:42:01;6.10;;;2.40;;
31786;SDS011;18356;52.380;9.820;2022-09-12T11:44:47;3.72;;;2.03;;
31786;SDS011;18356;52.380;9.820;2022-09-12T11:47:16;5.05;;;2.35;;
31786;SDS011;18356;52.380;9.820;2022-09-12T11:49:45;5.05;;;1.77;;
31786;SDS011;18356;52.380;9.820;2022-09-12T11:52:13;3.75;;;1.55;;
31786;SDS011;18356;52.380;9.820;2022-09-12T11:59:50;6.43;;;1.80;;
31786;SDS011;18356;52.380;9.820;2022-09-12T12:02:30;3.78;;;1.67;;
31786;SDS011;18356;52.380;9.820;2022-09-12T12:05:15;117.75;;;21.58;;
31786;SDS011;18356;52.380;9.820;2022-09-12T12:07:46;5.55;;;1.95;;
31786;SDS011;18356;52.380;9.820;2022-09-12T12:12:51;11.30;;;1.58;;
31786;SDS011;18356;52.380;9.820;2022-09-12T12:15:18;30.88;;;2.63;;
31786;SDS011;18356;52.380;9.820;2022-09-12T12:17:45;11.63;;;2.00;;
31786;SDS011;18356;52.380;9.820;2022-09-12T12:20:24;9.13;;;2.35;;
31786;SDS011;18356;52.380;9.820;2022-09-12T12:22:53;5.80;;;1.33;;
31786;SDS011;18356;52.380;9.820;2022-09-12T12:27:58;10.57;;;1.40;;
31786;SDS011;18356;52.380;9.820;2022-09-12T12:35:37;1.67;;;1.20;;
31786;SDS011;18356;52.380;9.820;2022-09-12T12:38:25;3.85;;;1.10;;
31786;SDS011;18356;52.380;9.820;2022-09-12T12:40:51;5.70;;;1.27;;
31786;SDS011;18356;52.380;9.820;2022-09-12T12:43:34;3.97;;;1.20;;
31786;SDS011;18356;52.380;9.820;2022-09-12T12:46:02;2.70;;;1.27;;
31786;SDS011;18356;52.380;9.820;2022-09-12T12:48:29;3.35;;;1.48;;
31786;SDS011;18356;52.380;9.820;2022-09-12T12:53:41;10.55;;;1.80;;
31786;SDS011;18356;52.380;9.820;2022-09-12T12:56:32;5.65;;;1.45;;
31786;SDS011;18356;52.380;9.820;2022-09-12T12:58:58;13.15;;;1.77;;
31786;SDS011;18356;52.380;9.820;2022-09-12T13:01:35;6.05;;;1.70;;
31786;SDS011;18356;52.380;9.820;2022-09-12T13:04:11;7.18;;;1.50;;
31786;SDS011;18356;52.380;9.820;2022-09-12T13:06:41;2.30;;;1.00;;
31786;SDS011;18356;52.380;9.820;2022-09-12T13:12:24;2.97;;;1.45;;
31786;SDS011;18356;52.380;9.820;2022-09-12T13:17:16;8.65;;;1.70;;
31786;SDS011;18356;52.380;9.820;2022-09-12T13:19:43;5.57;;;1.70;;
31786;SDS011;18356;52.380;9.820;2022-09-12T13:22:10;4.93;;;1.55;;
31786;SDS011;18356;52.380;9.820;2022-09-12T13:24:43;3.63;;;1.55;;
31786;SDS011;18356;52.380;9.820;2022-09-12T13:27:21;4.28;;;1.85;;
31786;SDS011;18356;52.380;9.820;2022-09-12T13:29:48;5.38;;;2.13;;
31786;SDS011;18356;52.380;9.820;2022-09-12T13:32:14;4.80;;;1.60;;
31786;SDS011;18356;52.380;9.820;2022-09-12T13:34:48;4.53;;;1.50;;
31786;SDS011;18356;52.380;9.820;2022-09-12T13:42:39;2.92;;;1.60;;
31786;SDS011;18356;52.380;9.820;2022-09-12T13:47:37;2.55;;;1.45;;
31786;SDS011;18356;52.380;9.820;2022-09-12T13:50:04;3.70;;;1.60;;
31786;SDS011;18356;52.380;9.820;2022-09-12T13:52:34;3.22;;;1.60;;
31786;SDS011;18356;52.380;9.820;2022-09-12T13:55:04;2.95;;;1.40;;
31786;SDS011;18356;52.380;9.820;2022-09-12T13:57:33;2.38;;;1.50;;
31786;SDS011;18356;52.380;9.820;2022-09-12T14:00:03;3.17;;;1.63;;
31786;SDS011;18356;52.380;9.820;2022-09-12T14:02:33;4.55;;;1.60;;
31786;SDS011;18356;52.380;9.820;2022-09-12T14:04:59;2.85;;;1.40;;
31786;SDS011;18356;52.380;9.820;2022-09-12T14:07:33;5.75;;;1.88;;
31786;SDS011;18356;52.380;9.820;2022-09-12T14:10:03;3.72;;;1.42;;
31786;SDS011;18356;52.380;9.820;2022-09-12T14:12:31;5.47;;;1.70;;
31786;SDS011;18356;52.380;9.820;2022-09-12T14:14:59;2.55;;;1.48;;
31786;SDS011;18356;52.380;9.820;2022-09-12T14:17:27;2.22;;;1.45;;
31786;SDS011;18356;52.380;9.820;2022-09-12T14:20:00;2.90;;;1.60;;
31786;SDS011;18356;52.380;9.820;2022-09-12T14:22:27;2.90;;;1.50;;
31786;SDS011;18356;52.380;9.820;2022-09-12T14:24:54;4.00;;;1.70;;
31786;SDS011;18356;52.380;9.820;2022-09-12T14:27:23;2.70;;;1.25;;
31786;SDS011;18356;52.380;9.820;2022-09-12T14:29:54;1.88;;;1.10;;
31786;SDS011;18356;52.380;9.820;2022-09-12T14:32:22;2.95;;;1.27;;
31786;SDS011;18356;52.380;9.820;2022-09-12T14:35:12;4.45;;;1.23;;
31786;SDS011;18356;52.380;9.820;2022-09-12T14:37:42;4.78;;;1.35;;
31786;SDS011;18356;52.380;9.820;2022-09-12T14:40:15;2.47;;;1.20;;
31786;SDS011;18356;52.380;9.820;2022-09-12T14:42:42;2.13;;;1.00;;
31786;SDS011;18356;52.380;9.820;2022-09-12T14:45:15;5.20;;;1.30;;
31786;SDS011;18356;52.380;9.820;2022-09-12T14:47:41;2.45;;;1.40;;
31786;SDS011;18356;52.380;9.820;2022-09-12T14:50:15;3.13;;;1.30;;
31786;SDS011;18356;52.380;9.820;2022-09-12T14:52:41;1.88;;;1.23;;
31786;SDS011;18356;52.380;9.820;2022-09-12T14:57:42;3.17;;;1.30;;
31786;SDS011;18356;52.380;9.820;2022-09-12T15:02:39;4.10;;;1.30;;
31786;SDS011;18356;52.380;9.820;2022-09-12T15:07:39;3.65;;;1.50;;
31786;SDS011;18356;52.380;9.820;2022-09-12T15:10:13;3.38;;;1.40;;
31786;SDS011;18356;52.380;9.820;2022-09-12T15:12:40;3.85;;;1.60;;
31786;SDS011;18356;52.380;9.820;2022-09-12T15:15:17;2.88;;;1.40;;
31786;SDS011;18356;52.380;9.820;2022-09-12T15:17:44;3.05;;;1.55;;
31786;SDS011;18356;52.380;9.820;2022-09-12T15:20:10;3.55;;;1.20;;
31786;SDS011;18356;52.380;9.820;2022-09-12T15:22:37;3.92;;;1.60;;
31786;SDS011;18356;52.380;9.820;2022-09-12T15:25:03;2.10;;;1.30;;
31786;SDS011;18356;52.380;9.820;2022-09-12T15:27:30;5.45;;;1.30;;
31786;SDS011;18356;52.380;9.820;2022-09-12T15:29:56;4.57;;;1.60;;
31786;SDS011;18356;52.380;9.820;2022-09-12T15:32:23;3.72;;;1.42;;
31786;SDS011;18356;52.380;9.820;2022-09-12T15:34:49;4.00;;;1.75;;
31786;SDS011;18356;52.380;9.820;2022-09-12T15:37:17;5.35;;;1.73;;
31786;SDS011;18356;52.380;9.820;2022-09-12T15:39:44;3.53;;;1.60;;
31786;SDS011;18356;52.380;9.820;2022-09-12T15:42:11;2.65;;;1.50;;
31786;SDS011;18356;52.380;9.820;2022-09-12T15:44:37;3.80;;;1.38;;
31786;SDS011;18356;52.380;9.820;2022-09-12T15:47:03;2.72;;;1.55;;
31786;SDS011;18356;52.380;9.820;2022-09-12T15:49:30;2.85;;;1.50;;
31786;SDS011;18356;52.380;9.820;2022-09-12T15:51:56;3.05;;;1.20;;
31786;SDS011;18356;52.380;9.820;2022-09-12T15:54:22;3.65;;;1.63;;
31786;SDS011;18356;52.380;9.820;2022-09-12T15:56:49;2.60;;;1.23;;
31786;SDS011;18356;52.380;9.820;2022-09-12T15:59:15;3.03;;;1.48;;
31786;SDS011;18356;52.380;9.820;2022-09-12T16:01:41;3.13;;;1.48;;
31786;SDS011;18356;52.380;9.820;2022-09-12T16:04:18;3.58;;;1.50;;
31786;SDS011;18356;52.380;9.820;2022-09-12T16:06:44;4.20;;;1.42;;
31786;SDS011;18356;52.380;9.820;2022-09-12T16:09:11;4.30;;;2.15;;
31786;SDS011;18356;52.380;9.820;2022-09-12T16:11:37;3.05;;;1.30;;
31786;SDS011;18356;52.380;9.820;2022-09-12T16:14:03;2.55;;;1.40;;
31786;SDS011;18356;52.380;9.820;2022-09-12T16:16:30;3.78;;;1.45;;
31786;SDS011;18356;52.380;9.820;2022-09-12T16:18:56;2.58;;;1.50;;
31786;SDS011;18356;52.380;9.820;2022-09-12T16:21:22;2.20;;;1.30;;
31786;SDS011;18356;52.380;9.820;2022-09-12T16:23:48;4.70;;;1.40;;
31786;SDS011;18356;52.380;9.820;2022-09-12T16:26:15;2.47;;;1.20;;
31786;SDS011;18356;52.380;9.820;2022-09-12T16:28:41;4.03;;;1.50;;
31786;SDS011;18356;52.380;9.820;2022-09-12T16:31:09;3.53;;;1.50;;
31786;SDS011;18356;52.380;9.820;2022-09-12T16:33:36;3.20;;;1.40;;
31786;SDS011;18356;52.380;9.820;2022-09-12T16:36:03;3.65;;;1.40;;
31786;SDS011;18356;52.380;9.820;2022-09-12T16:38:29;3.53;;;1.60;;
31786;SDS011;18356;52.380;9.820;2022-09-12T16:40:59;4.18;;;1.48;;
31786;SDS011;18356;52.380;9.820;2022-09-12T16:43:26;2.65;;;1.40;;
31786;SDS011;18356;52.380;9.820;2022-09-12T16:46:06;5.80;;;1.50;;
31786;SDS011;18356;52.380;9.820;2022-09-12T16:48:32;5.35;;;1.60;;
31786;SDS011;18356;52.380;9.820;2022-09-12T16:50:59;4.25;;;1.60;;
31786;SDS011;18356;52.380;9.820;2022-09-12T16:53:28;3.97;;;1.60;;
31786;SDS011;18356;52.380;9.820;2022-09-12T16:55:55;3.95;;;1.60;;
31786;SDS011;18356;52.380;9.820;2022-09-12T16:58:21;3.15;;;1.42;;
31786;SDS011;18356;52.380;9.820;2022-09-12T17:00:47;4.43;;;1.88;;